Sam Norwood, Texas
Current Conditions -  °F | °C
As of 6:53 AM on Saturday 25 Oct 2014 (Local Time) from KCDS Reporting Station
Clear Clear  
Wind Chill: 60°   Ceiling: Unl
Heat Index: 60°   Visibility: 10mi
Dew Point: 52°   Wind: 8mph
Humidity: 75%   Direction: 250°WSW
Pressure: 30.1"   Gusts: NA
Location:  35.0524°N, 100.276°W
Report Text: KCDS 251153Z AUTO 25007KT 10SM CLR 16/11 A3010 RMK AO2 SLP172 T01560111 10200 20156 53002
Loading
Personal Weather Stations






























Interactive Weather Map
Tropical Storm Tracking
New forecast layout! Learn more

10-Day Weather Forecast

Advertisements
Track Severe Weather on mobile